Time;durP1;ratioP1;P1;durP2;ratioP2;P2;SDS_P1;SDS_P2;PMS_P1;PMS_P2;Temp;Humidity;BMP_temperature;BMP_pressure;BME280_temperature;BME280_humidity;BME280_pressure;Samples;Min_cycle;Max_cycle;Signal;HPM_P1;HPM_P2
2021/05/11 00:14:25;;;;;;;8.15;3.43;;;;;;;16.14;75.14;100153.20;712602;1203;115309;-79
2021/05/11 00:29:45;;;;;;;6.00;3.65;;;;;;;16.13;75.00;100155.01;712685;1182;113600;-79
2021/05/11 00:45:07;;;;;;;8.13;4.00;;;;;;;15.70;77.11;100159.82;712640;1189;113907;-79
2021/05/11 01:00:27;;;;;;;5.75;3.70;;;;;;;15.48;78.79;100154.30;712509;1177;113909;-79
2021/05/11 01:15:50;;;;;;;8.88;4.63;;;;;;;15.31;79.62;100152.70;712697;1177;114157;-79
2021/05/11 01:47:16;;;;;;;9.05;4.70;;;;;;;14.91;81.22;100157.90;712600;1178;113667;-79
2021/05/11 02:34:08;;;;;;;15.40;8.13;;;;;;;14.70;82.16;100152.28;712749;1177;114005;-79
2021/05/11 02:49:28;;;;;;;12.35;5.98;;;;;;;14.39;82.72;100148.45;713216;1202;113963;-78
2021/05/11 03:04:49;;;;;;;31.30;14.38;;;;;;;14.36;82.67;100155.86;713295;1179;113839;-86
2021/05/11 03:20:11;;;;;;;9.47;5.20;;;;;;;14.17;84.90;100162.27;714073;1202;115543;-85
2021/05/11 03:35:32;;;;;;;13.30;6.70;;;;;;;14.27;84.51;100142.66;715066;1202;114689;-76
2021/05/11 03:50:52;;;;;;;8.80;5.03;;;;;;;14.52;85.41;100150.61;715786;1205;114032;-76
2021/05/11 04:06:13;;;;;;;14.60;7.93;;;;;;;14.84;85.14;100145.52;712735;1205;114255;-75
2021/05/11 04:21:34;;;;;;;14.43;8.03;;;;;;;15.22;84.53;100140.52;713306;1202;114741;-76
2021/05/11 04:36:54;;;;;;;24.80;15.35;;;;;;;15.62;83.60;100142.17;713122;1203;114252;-75
2021/05/11 04:52:15;;;;;;;19.00;10.90;;;;;;;16.07;82.79;100144.30;712904;1203;114211;-81
2021/05/11 05:07:36;;;;;;;16.10;8.83;;;;;;;16.59;81.60;100146.25;715636;1168;114136;-76
2021/05/11 05:22:56;;;;;;;11.73;6.10;;;;;;;17.03;79.58;100147.38;713348;1189;113860;-76
2021/05/11 05:38:16;;;;;;;8.47;5.50;;;;;;;17.48;78.27;100151.89;713777;1202;114394;-77
2021/05/11 05:53:39;;;;;;;10.10;6.63;;;;;;;17.90;76.39;100140.56;713220;1201;114971;-80
2021/05/11 06:09:00;;;;;;;7.13;5.03;;;;;;;18.58;74.65;100132.29;713261;1205;114084;-75
2021/05/11 06:24:21;;;;;;;9.50;5.07;;;;;;;18.70;73.76;100124.63;712909;1203;113772;-75
2021/05/11 06:39:48;;;;;;;8.60;5.55;;;;;;;19.16;72.86;100122.49;713074;1202;114800;-76
2021/05/11 06:55:13;;;;;;;9.00;5.38;;;;;;;19.70;70.96;100115.59;712942;1202;114370;-74
2021/05/11 07:10:35;;;;;;;11.75;5.80;;;;;;;20.20;69.83;100107.34;713093;1202;114327;-75
2021/05/11 07:41:21;;;;;;;9.30;5.33;;;;;;;21.81;66.27;100089.22;717207;1202;115446;-74
2021/05/11 08:43:08;;;;;;;10.03;3.20;;;;;;;24.64;57.81;100074.33;713088;1205;114030;-75
2021/05/11 09:50:52;;;;;;;10.13;3.35;;;;;;;26.18;52.54;100030.88;712957;1202;114645;-73
2021/05/11 10:48:38;;;;;;;3.70;2.65;;;;;;;28.34;49.39;100009.06;713895;1203;114253;-74
2021/05/11 11:04:18;;;;;;;10.73;2.50;;;;;;;28.56;49.31;99998.14;724727;1202;114998;-73
2021/05/11 11:19:39;;;;;;;7.27;2.50;;;;;;;28.98;48.85;99984.84;716219;1202;113813;-73
2021/05/11 11:34:59;;;;;;;10.63;2.45;;;;;;;29.27;47.48;99965.50;712651;1202;114850;-72
2021/05/11 11:50:20;;;;;;;6.20;2.65;;;;;;;29.36;44.79;99963.89;712641;1202;114416;-77
2021/05/11 12:05:59;;;;;;;8.23;2.73;;;;;;;29.81;44.71;99956.06;712895;1177;113683;-79
2021/05/11 12:21:19;;;;;;;6.67;2.43;;;;;;;29.97;44.13;99916.33;712974;1202;114798;-78
2021/05/11 12:36:50;;;;;;;3.18;2.50;;;;;;;30.08;44.88;99906.30;714468;1202;113697;-79
2021/05/11 12:52:11;;;;;;;42.47;20.23;;;;;;;30.08;44.97;99895.48;713189;1187;113587;-78
2021/05/11 13:38:56;;;;;;;11.23;6.50;;;;;;;30.45;43.87;99872.64;712869;1185;114151;-75
2021/05/11 13:54:18;;;;;;;18.33;2.85;;;;;;;30.62;44.06;99847.94;713597;1187;114303;-75
2021/05/11 14:09:39;;;;;;;5.73;2.58;;;;;;;30.14;43.90;99851.92;712950;1195;114827;-75
2021/05/11 14:25:00;;;;;;;5.60;2.65;;;;;;;36.51;38.67;99834.51;713486;1194;114373;-74
2021/05/11 14:40:20;;;;;;;7.20;2.55;;;;;;;32.31;40.48;99821.22;712972;1202;114561;-75
2021/05/11 14:55:40;;;;;;;9.15;2.90;;;;;;;30.24;42.82;99797.00;712926;1202;113714;-77
2021/05/11 15:11:08;;;;;;;11.25;3.13;;;;;;;29.88;43.84;99792.55;715051;1203;114694;-78
2021/05/11 15:26:32;;;;;;;4.65;3.00;;;;;;;29.48;44.99;99778.03;717656;1202;113713;-78
2021/05/11 15:41:52;;;;;;;10.45;4.65;;;;;;;29.13;45.97;99765.39;717859;1191;113587;-79
2021/05/11 15:57:12;;;;;;;9.37;4.17;;;;;;;28.66;47.00;99757.27;714050;1202;113736;-80
2021/05/11 16:12:33;;;;;;;17.30;12.03;;;;;;;28.30;47.26;99756.39;713803;1202;114901;-79
2021/05/11 16:27:54;;;;;;;13.05;5.18;;;;;;;27.92;47.83;99753.80;714382;1202;115187;-77
2021/05/11 16:43:15;;;;;;;10.05;2.63;;;;;;;27.43;47.08;99754.91;712472;1205;115010;-77
2021/05/11 16:58:36;;;;;;;7.18;4.05;;;;;;;26.97;47.84;99739.22;714127;1202;113406;-80
2021/05/11 17:14:02;;;;;;;4.55;2.45;;;;;;;26.58;48.51;99745.59;712713;1203;113680;-83
2021/05/11 17:29:22;;;;;;;3.90;1.80;;;;;;;26.10;48.92;99749.92;712616;1202;113984;-81
2021/05/11 17:44:43;;;;;;;10.15;3.45;;;;;;;25.52;49.55;99752.11;713112;1202;115006;-74
2021/05/11 18:00:06;;;;;;;5.58;2.83;;;;;;;24.90;50.35;99754.66;712910;1202;115065;-74
2021/05/11 18:15:27;;;;;;;5.23;2.30;;;;;;;24.39;51.22;99770.62;714381;1202;114335;-88
2021/05/11 18:30:48;;;;;;;6.40;2.00;;;;;;;23.98;51.13;99769.81;714437;1178;113609;-89
2021/05/11 18:46:08;;;;;;;4.37;1.90;;;;;;;23.58;51.87;99771.36;713761;1202;115133;-80
2021/05/11 19:01:30;;;;;;;5.30;2.50;;;;;;;23.23;53.04;99776.70;715109;1180;113650;-75
2021/05/11 19:16:50;;;;;;;3.50;2.07;;;;;;;22.87;54.04;99786.47;717953;1202;115011;-80
2021/05/11 19:32:11;;;;;;;8.97;2.60;;;;;;;22.64;54.49;99784.55;716094;1202;114699;-83
2021/05/11 19:47:31;;;;;;;9.13;2.53;;;;;;;22.30;55.30;99794.83;717957;1203;114427;-83
2021/05/11 20:02:55;;;;;;;2.53;2.23;;;;;;;22.07;55.06;99802.47;717736;1202;115166;-83
2021/05/11 20:18:16;;;;;;;4.83;2.45;;;;;;;21.77;55.19;99797.05;716645;1202;114258;-83
2021/05/11 20:33:40;;;;;;;5.03;2.65;;;;;;;21.51;55.57;99790.91;714821;1178;113631;-77
2021/05/11 20:49:03;;;;;;;5.50;2.67;;;;;;;21.32;55.02;99783.89;712707;1202;113752;-77
2021/05/11 21:04:23;;;;;;;10.40;2.70;;;;;;;20.99;55.12;99807.10;712529;1193;113897;-76
2021/05/11 21:19:44;;;;;;;6.30;3.13;;;;;;;20.62;55.76;99807.69;713157;1202;113811;-76
2021/05/11 21:35:06;;;;;;;8.80;3.58;;;;;;;20.42;56.02;99791.00;712686;1205;114136;-81
2021/05/11 21:50:28;;;;;;;4.60;2.93;;;;;;;20.10;56.86;99782.94;713015;1202;114350;-80
2021/05/11 22:05:48;;;;;;;5.90;3.08;;;;;;;19.80;56.76;99796.69;715773;1202;113646;-85
2021/05/11 22:21:20;;;;;;;6.03;3.10;;;;;;;19.55;57.71;99791.20;717280;1202;114232;-83
2021/05/11 22:36:41;;;;;;;5.18;3.73;;;;;;;19.26;58.08;99793.26;716918;1202;114019;-84
2021/05/11 22:52:02;;;;;;;7.68;3.73;;;;;;;19.02;58.13;99805.31;717194;1202;114345;-84
2021/05/11 23:07:22;;;;;;;7.83;4.07;;;;;;;18.72;58.89;99797.65;718792;1178;113479;-84
2021/05/11 23:22:43;;;;;;;7.83;3.43;;;;;;;18.52;58.78;99789.63;714603;1205;114857;-75
2021/05/11 23:38:03;;;;;;;6.10;3.50;;;;;;;18.26;58.68;99775.22;712859;1203;115224;-74
2021/05/11 23:53:23;;;;;;;6.03;3.33;;;;;;;18.00;58.98;99768.80;712915;1202;113787;-76
